createdAt,value
2019-02-14T00:01:14.953Z,99.90
2019-02-14T00:03:43.521Z,99.90
2019-02-14T00:06:12.192Z,99.90
2019-02-14T00:08:41.122Z,99.90
2019-02-14T00:11:09.786Z,99.90
2019-02-14T00:13:38.354Z,99.90
2019-02-14T00:16:07.009Z,99.90
2019-02-14T00:18:35.588Z,99.90
2019-02-14T00:21:04.322Z,99.90
2019-02-14T00:23:32.962Z,99.90
2019-02-14T00:26:01.530Z,99.90
2019-02-14T00:28:30.129Z,99.90
2019-02-14T00:30:58.721Z,99.90
2019-02-14T00:33:27.466Z,99.90
2019-02-14T00:35:56.069Z,99.90
2019-02-14T00:38:24.702Z,99.90
2019-02-14T00:40:53.433Z,99.90
2019-02-14T00:43:22.001Z,99.90
2019-02-14T00:45:50.608Z,99.90
2019-02-14T00:48:19.234Z,99.90
2019-02-14T00:50:47.883Z,99.90
2019-02-14T00:53:16.478Z,99.90
2019-02-14T00:55:45.045Z,99.90
2019-02-14T00:58:13.721Z,99.90
2019-02-14T01:00:45.027Z,99.90
2019-02-14T01:03:13.757Z,99.90
2019-02-14T01:05:42.337Z,99.90
2019-02-14T01:08:10.995Z,99.90
2019-02-14T01:10:39.568Z,99.90
2019-02-14T01:13:08.240Z,99.90
2019-02-14T01:15:37.445Z,99.90
2019-02-14T01:18:06.005Z,99.90
2019-02-14T01:20:34.605Z,99.90
2019-02-14T01:23:13.962Z,99.90
2019-02-14T01:25:40.694Z,99.90
2019-02-14T01:28:09.264Z,99.90
2019-02-14T01:30:37.854Z,99.90
2019-02-14T01:33:06.429Z,99.90
2019-02-14T01:35:41.877Z,99.90
2019-02-14T01:38:05.395Z,99.90
2019-02-14T01:40:34.024Z,99.90
2019-02-14T01:43:02.694Z,99.90
2019-02-14T01:45:31.246Z,99.90
2019-02-14T01:47:59.919Z,99.90
2019-02-14T01:50:28.633Z,99.90
2019-02-14T01:52:57.310Z,99.90
2019-02-14T01:55:26.008Z,99.90
2019-02-14T01:57:54.670Z,99.90
2019-02-14T02:00:23.409Z,99.90
2019-02-14T02:02:52.010Z,99.90
2019-02-14T02:05:20.645Z,99.90
2019-02-14T02:07:49.342Z,99.90
2019-02-14T02:10:18.002Z,99.90
2019-02-14T02:12:46.630Z,99.90
2019-02-14T02:15:15.371Z,99.90
2019-02-14T02:17:43.934Z,99.90
2019-02-14T02:20:12.664Z,99.90
2019-02-14T02:22:41.297Z,99.90
2019-02-14T02:25:12.950Z,99.90
2019-02-14T02:27:41.573Z,99.90
2019-02-14T02:30:15.205Z,99.90
2019-02-14T02:32:43.765Z,99.90
2019-02-14T02:35:12.511Z,99.90
2019-02-14T02:37:41.066Z,99.90
2019-02-14T02:40:10.065Z,99.90
2019-02-14T02:42:38.655Z,99.90
2019-02-14T02:45:10.353Z,99.90
2019-02-14T02:47:39.012Z,99.90
2019-02-14T02:50:10.217Z,99.90
2019-02-14T02:52:38.881Z,99.90
2019-02-14T02:55:09.792Z,99.90
2019-02-14T02:57:38.538Z,99.90
2019-02-14T03:00:13.216Z,99.90
2019-02-14T03:02:41.873Z,99.90
2019-02-14T03:05:12.481Z,99.90
2019-02-14T03:07:41.135Z,99.90
2019-02-14T03:10:12.341Z,99.90
2019-02-14T03:12:40.929Z,99.90
2019-02-14T03:15:14.400Z,99.90
2019-02-14T03:17:43.112Z,99.90
2019-02-14T03:20:13.242Z,99.90
2019-02-14T03:22:41.896Z,99.90
2019-02-14T03:25:16.153Z,99.90
2019-02-14T03:27:44.744Z,99.90
2019-02-14T03:30:15.659Z,99.90
2019-02-14T03:32:44.323Z,99.90
2019-02-14T03:35:12.954Z,99.90
2019-02-14T03:37:41.516Z,99.90
2019-02-14T03:40:14.804Z,99.90
2019-02-14T03:42:43.355Z,99.90
2019-02-14T03:45:15.013Z,99.90
2019-02-14T03:47:43.646Z,99.90
2019-02-14T03:50:13.171Z,99.90
2019-02-14T03:52:41.814Z,99.90
2019-02-14T03:55:11.460Z,99.90
2019-02-14T03:57:40.252Z,99.90
2019-02-14T04:00:16.426Z,99.90
2019-02-14T04:02:46.934Z,99.90
2019-02-14T04:05:15.679Z,99.90
2019-02-14T04:07:44.247Z,99.90
2019-02-14T04:10:14.089Z,99.90
2019-02-14T04:12:42.800Z,99.90
2019-02-14T04:15:13.872Z,99.90
2019-02-14T04:17:42.539Z,99.90
2019-02-14T04:20:11.943Z,99.90
2019-02-14T04:22:40.551Z,99.90
2019-02-14T04:25:10.158Z,99.90
2019-02-14T04:27:38.765Z,99.90
2019-02-14T04:30:12.356Z,99.90
2019-02-14T04:32:41.025Z,99.90
2019-02-14T04:35:09.836Z,99.90
2019-02-14T04:37:38.443Z,99.90
2019-02-14T04:40:12.583Z,99.90
2019-02-14T04:42:41.252Z,99.90
2019-02-14T04:45:12.179Z,99.90
2019-02-14T04:47:40.949Z,99.90
2019-02-14T04:50:11.397Z,99.90
2019-02-14T04:52:40.037Z,99.90
2019-02-14T04:55:10.583Z,99.90
2019-02-14T04:57:39.150Z,99.90
2019-02-14T05:00:10.820Z,99.90
2019-02-14T05:02:39.474Z,99.90
2019-02-14T05:05:09.330Z,99.90
2019-02-14T05:07:37.905Z,99.90
2019-02-14T05:10:11.667Z,99.90
2019-02-14T05:12:40.330Z,99.90
2019-02-14T05:15:10.278Z,99.90
2019-02-14T05:17:38.996Z,99.90
2019-02-14T05:20:12.570Z,99.90
2019-02-14T05:22:41.215Z,99.90
2019-02-14T05:25:10.427Z,99.90
2019-02-14T05:27:39.173Z,99.90
2019-02-14T05:30:18.339Z,99.90
2019-02-14T05:32:47.014Z,99.90
2019-02-14T05:35:15.653Z,99.90
2019-02-14T05:37:44.295Z,99.90
2019-02-14T05:40:12.970Z,99.90
2019-02-14T05:42:41.533Z,99.90
2019-02-14T05:45:11.963Z,99.90
2019-02-14T05:47:40.686Z,99.90
2019-02-14T05:50:11.531Z,99.90
2019-02-14T05:52:40.242Z,99.90
2019-02-14T05:55:11.293Z,99.90
2019-02-14T05:57:39.998Z,99.90
2019-02-14T06:00:18.199Z,99.90
2019-02-14T06:02:46.838Z,99.90
2019-02-14T06:05:15.578Z,99.90
2019-02-14T06:07:44.299Z,99.90
2019-02-14T06:10:13.069Z,99.90
2019-02-14T06:12:41.703Z,99.90
2019-02-14T06:15:12.147Z,99.90
2019-02-14T06:17:40.707Z,99.90
2019-02-14T06:20:12.996Z,99.90
2019-02-14T06:22:41.638Z,99.90
2019-02-14T06:25:11.880Z,99.90
2019-02-14T06:27:40.521Z,99.90
2019-02-14T06:30:14.105Z,99.90
2019-02-14T06:32:42.825Z,99.90
2019-02-14T06:35:11.965Z,99.90
2019-02-14T06:37:40.677Z,99.90
2019-02-14T06:40:14.213Z,99.90
2019-02-14T06:42:42.813Z,99.90
2019-02-14T06:45:13.917Z,99.90
2019-02-14T06:47:42.490Z,99.90
2019-02-14T06:50:11.230Z,99.90
2019-02-14T06:52:40.455Z,99.90
2019-02-14T06:55:09.793Z,99.90
2019-02-14T06:57:38.490Z,99.90
2019-02-14T07:00:17.378Z,99.90
2019-02-14T07:02:46.101Z,99.90
2019-02-14T07:05:14.906Z,99.90
2019-02-14T07:07:43.586Z,99.90
2019-02-14T07:10:13.197Z,99.90
2019-02-14T07:12:41.798Z,99.90
2019-02-14T07:15:12.506Z,99.90
2019-02-14T07:17:41.108Z,99.90
2019-02-14T07:20:12.694Z,99.90
2019-02-14T07:22:41.562Z,99.90
2019-02-14T07:25:31.036Z,99.90
2019-02-14T07:27:59.714Z,99.90
2019-02-14T07:30:28.643Z,99.90
2019-02-14T07:32:58.740Z,99.90
2019-02-14T07:35:27.462Z,99.90
2019-02-14T07:37:56.217Z,99.90
2019-02-14T07:40:24.931Z,99.90
2019-02-14T07:42:53.648Z,99.90
2019-02-14T07:45:22.465Z,99.90
2019-02-14T07:47:51.032Z,99.90
2019-02-14T07:50:19.708Z,99.90
2019-02-14T07:52:48.346Z,99.90
2019-02-14T07:55:17.140Z,99.90
2019-02-14T07:57:45.784Z,99.90
2019-02-14T08:00:19.342Z,99.90
2019-02-14T08:02:47.930Z,99.90
2019-02-14T08:05:16.669Z,99.90
2019-02-14T08:07:45.295Z,99.90
2019-02-14T08:10:18.439Z,99.90
2019-02-14T08:12:47.079Z,99.90
2019-02-14T08:15:15.831Z,99.90
2019-02-14T08:17:44.544Z,99.90
2019-02-14T08:20:21.598Z,99.90
2019-02-14T08:25:18.584Z,99.90
2019-02-14T08:27:47.158Z,99.90
2019-02-14T08:30:20.606Z,99.90
2019-02-14T08:32:49.252Z,99.90
2019-02-14T08:35:17.946Z,99.90
2019-02-14T08:37:46.538Z,99.90
2019-02-14T08:40:18.191Z,99.90
2019-02-14T08:42:46.896Z,99.90
2019-02-14T08:45:15.530Z,99.90
2019-02-14T08:47:44.274Z,99.10
2019-02-14T08:50:13.000Z,99.60
2019-02-14T08:52:41.651Z,99.90
2019-02-14T08:55:10.862Z,99.50
2019-02-14T08:57:39.601Z,99.70
2019-02-14T09:00:16.325Z,99.50
2019-02-14T09:02:45.002Z,99.40
2019-02-14T09:05:13.715Z,99.70
2019-02-14T09:07:42.390Z,99.90
2019-02-14T09:10:16.582Z,99.70
2019-02-14T09:12:45.244Z,99.70
2019-02-14T09:15:14.839Z,99.50
2019-02-14T09:17:43.527Z,98.40
2019-02-14T09:20:17.027Z,97.10
2019-02-14T09:22:45.693Z,97.20
2019-02-14T09:25:14.396Z,96.00
2019-02-14T09:27:42.993Z,96.40
2019-02-14T09:30:13.800Z,96.30
2019-02-14T09:32:42.621Z,96.90
2019-02-14T09:35:11.271Z,96.70
2019-02-14T09:37:39.880Z,98.10
2019-02-14T09:40:13.496Z,93.40
2019-02-14T09:42:42.244Z,87.60
2019-02-14T09:45:12.947Z,80.90
2019-02-14T09:47:41.583Z,78.40
2019-02-14T09:50:14.940Z,77.00
2019-02-14T09:52:43.647Z,76.10
2019-02-14T09:55:13.586Z,81.20
2019-02-14T09:57:42.317Z,76.40
2019-02-14T10:00:13.769Z,76.70
2019-02-14T10:02:42.448Z,78.70
2019-02-14T10:05:11.577Z,80.60
2019-02-14T10:07:40.218Z,78.00
2019-02-14T10:10:12.082Z,79.20
2019-02-14T10:12:40.742Z,81.90
2019-02-14T10:15:10.762Z,83.80
2019-02-14T10:17:39.494Z,85.50
2019-02-14T10:20:11.145Z,86.70
2019-02-14T10:22:39.820Z,89.10
2019-02-14T10:25:08.625Z,86.50
2019-02-14T10:27:37.232Z,86.80
2019-02-14T10:30:08.867Z,87.80
2019-02-14T10:32:37.532Z,87.00
2019-02-14T10:35:06.836Z,86.50
2019-02-14T10:37:35.507Z,85.90
2019-02-14T10:40:06.279Z,85.60
2019-02-14T10:42:34.882Z,86.80
2019-02-14T10:45:04.500Z,86.60
2019-02-14T10:47:33.095Z,86.80
2019-02-14T10:50:01.805Z,88.10
2019-02-14T10:52:30.468Z,88.40
2019-02-14T10:54:59.150Z,87.80
2019-02-14T10:57:27.783Z,88.80
2019-02-14T10:59:56.455Z,88.80
2019-02-14T11:02:25.019Z,90.00
2019-02-14T11:04:53.750Z,90.30
2019-02-14T11:07:22.459Z,89.90
2019-02-14T11:09:51.050Z,90.00
2019-02-14T11:12:21.753Z,90.80
2019-02-14T11:14:50.067Z,89.80
2019-02-14T11:17:18.710Z,90.20
2019-02-14T11:19:47.316Z,89.50
2019-02-14T11:22:15.873Z,89.50
2019-02-14T11:24:44.463Z,89.50
2019-02-14T11:27:13.131Z,88.70
2019-02-14T11:29:41.806Z,88.60
2019-02-14T11:32:10.456Z,89.80
2019-02-14T11:34:38.982Z,86.10
2019-02-14T11:37:07.736Z,86.70
2019-02-14T11:39:36.375Z,86.80
2019-02-14T11:42:05.134Z,84.60
2019-02-14T11:44:39.609Z,75.40
2019-02-14T11:47:04.247Z,73.20
2019-02-14T11:49:32.972Z,67.40
2019-02-14T11:52:01.571Z,65.70
2019-02-14T11:54:30.207Z,63.50
2019-02-14T11:56:58.814Z,60.50
2019-02-14T11:59:27.577Z,58.00
2019-02-14T12:01:56.455Z,57.10
2019-02-14T12:04:25.021Z,57.90
2019-02-14T12:06:53.869Z,60.40
2019-02-14T12:09:22.451Z,60.00
2019-02-14T12:11:51.065Z,60.20
2019-02-14T12:14:19.687Z,61.30
2019-02-14T12:16:48.458Z,58.90
2019-02-14T12:19:17.020Z,55.50
2019-02-14T12:21:45.621Z,54.10
2019-02-14T12:24:14.192Z,52.50
2019-02-14T12:26:42.793Z,54.40
2019-02-14T12:29:11.362Z,55.00
2019-02-14T12:31:40.018Z,55.80
2019-02-14T12:34:08.650Z,57.50
2019-02-14T12:36:37.336Z,56.60
2019-02-14T12:41:36.899Z,57.60
2019-02-14T12:44:05.467Z,59.80
2019-02-14T12:46:34.076Z,58.60
2019-02-14T12:49:02.712Z,58.40
2019-02-14T12:51:31.315Z,57.50
2019-02-14T12:54:00.028Z,58.60
2019-02-14T12:56:28.818Z,58.60
2019-02-14T12:58:57.469Z,63.10
2019-02-14T13:01:26.135Z,62.50
2019-02-14T13:03:54.779Z,63.60
2019-02-14T13:06:23.418Z,63.60
2019-02-14T13:08:52.092Z,64.40
2019-02-14T13:11:20.771Z,66.50
2019-02-14T13:13:50.603Z,63.80
2019-02-14T13:16:19.544Z,63.60
2019-02-14T13:18:48.209Z,62.90
2019-02-14T13:21:16.861Z,60.80
2019-02-14T13:23:45.435Z,60.50
2019-02-14T13:26:14.179Z,59.80
2019-02-14T13:28:42.920Z,59.10
2019-02-14T13:31:11.636Z,59.70
2019-02-14T13:33:40.491Z,59.80
2019-02-14T13:36:09.284Z,60.60
2019-02-14T13:38:38.032Z,60.40
2019-02-14T13:41:06.731Z,57.50
2019-02-14T13:43:35.407Z,57.00
2019-02-14T13:46:04.050Z,56.60
2019-02-14T13:48:32.649Z,54.60
2019-02-14T13:51:01.291Z,56.30
2019-02-14T13:53:29.887Z,54.60
2019-02-14T13:55:58.531Z,55.20
2019-02-14T13:58:27.246Z,53.70
2019-02-14T14:00:55.848Z,54.80
2019-02-14T14:03:24.553Z,55.50
2019-02-14T14:05:53.147Z,57.50
2019-02-14T14:08:21.723Z,57.90
2019-02-14T14:10:50.387Z,58.90
2019-02-14T14:13:19.030Z,58.60
2019-02-14T14:15:47.702Z,60.20
2019-02-14T14:18:16.283Z,61.40
2019-02-14T14:20:44.866Z,62.50
2019-02-14T14:23:13.451Z,62.70
2019-02-14T14:25:42.018Z,63.70
2019-02-14T14:28:10.686Z,62.70
2019-02-14T14:30:39.259Z,60.20
2019-02-14T14:33:07.929Z,58.70
2019-02-14T14:35:36.641Z,62.40
2019-02-14T14:38:05.384Z,60.80
2019-02-14T14:40:33.945Z,60.00
2019-02-14T14:43:10.010Z,60.50
2019-02-14T14:45:56.610Z,60.40
2019-02-14T14:48:26.918Z,61.40
2019-02-14T14:50:55.635Z,62.40
2019-02-14T14:53:24.304Z,62.30
2019-02-14T14:55:52.938Z,63.90
2019-02-14T14:58:21.658Z,65.20
2019-02-14T15:00:50.324Z,66.00
2019-02-14T15:03:19.009Z,67.50
2019-02-14T15:05:47.639Z,68.00
2019-02-14T15:08:16.217Z,69.50
2019-02-14T15:10:44.882Z,70.20
2019-02-14T15:13:13.483Z,71.10
2019-02-14T15:15:42.114Z,72.70
2019-02-14T15:18:10.682Z,74.30
2019-02-14T15:20:39.334Z,74.10
2019-02-14T15:23:08.071Z,75.70
2019-02-14T15:25:36.723Z,77.20
2019-02-14T15:28:05.430Z,78.00
2019-02-14T15:30:34.022Z,78.70
2019-02-14T15:33:02.692Z,79.60
2019-02-14T15:35:31.396Z,80.70
2019-02-14T15:37:59.967Z,82.20
2019-02-14T15:40:28.570Z,83.50
2019-02-14T15:42:59.174Z,85.60
2019-02-14T15:45:27.741Z,87.20
2019-02-14T15:47:56.309Z,87.70
2019-02-14T15:50:24.979Z,88.70
2019-02-14T15:52:54.680Z,89.20
2019-02-14T15:55:24.308Z,90.50
2019-02-14T15:57:53.093Z,91.00
2019-02-14T16:00:22.817Z,91.80
2019-02-14T16:02:52.539Z,92.10
2019-02-14T16:05:21.285Z,92.50
2019-02-14T16:07:49.914Z,92.80
2019-02-14T16:10:19.028Z,93.10
2019-02-14T16:12:47.919Z,93.50
2019-02-14T16:15:16.485Z,94.00
2019-02-14T16:17:45.077Z,94.30
2019-02-14T16:20:15.385Z,94.50
2019-02-14T16:22:44.830Z,94.80
2019-02-14T16:25:13.534Z,95.10
2019-02-14T16:27:42.205Z,95.60
2019-02-14T16:30:11.610Z,95.80
2019-02-14T16:32:40.223Z,96.10
2019-02-14T16:35:08.936Z,96.20
2019-02-14T16:37:37.695Z,96.30
2019-02-14T16:40:09.303Z,96.40
2019-02-14T16:42:38.043Z,96.70
2019-02-14T16:45:08.444Z,97.10
2019-02-14T16:47:37.188Z,97.20
2019-02-14T16:50:08.569Z,97.50
2019-02-14T16:52:37.302Z,97.60
2019-02-14T16:55:07.786Z,97.80
2019-02-14T16:57:36.477Z,98.00
2019-02-14T17:00:08.327Z,98.20
2019-02-14T17:02:36.893Z,98.30
2019-02-14T17:05:05.926Z,98.60
2019-02-14T17:07:34.757Z,98.90
2019-02-14T17:10:03.983Z,98.80
2019-02-14T17:12:32.704Z,99.00
2019-02-14T17:15:01.452Z,99.50
2019-02-14T17:17:32.294Z,99.50
2019-02-14T17:20:01.902Z,99.70
2019-02-14T17:22:30.470Z,99.90
2019-02-14T17:24:59.631Z,99.90
2019-02-14T17:27:28.611Z,99.90
2019-02-14T17:29:57.363Z,99.90
2019-02-14T17:32:26.062Z,99.90
2019-02-14T17:34:54.962Z,99.90
2019-02-14T17:37:23.654Z,99.90
2019-02-14T17:39:52.326Z,99.90
2019-02-14T17:42:21.874Z,99.90
2019-02-14T17:44:50.507Z,99.90
2019-02-14T17:47:19.251Z,99.90
2019-02-14T17:49:47.806Z,99.90
2019-02-14T17:52:16.553Z,99.90
2019-02-14T17:54:45.258Z,99.90
2019-02-14T17:57:13.962Z,99.90
2019-02-14T17:59:42.630Z,99.90
2019-02-14T18:02:11.259Z,99.90
2019-02-14T18:04:39.927Z,99.90
2019-02-14T18:07:08.572Z,99.90
2019-02-14T18:09:37.315Z,99.90
2019-02-14T18:12:06.018Z,99.90
2019-02-14T18:14:34.760Z,99.90
2019-02-14T18:17:03.466Z,99.90
2019-02-14T18:19:32.132Z,99.90
2019-02-14T18:22:00.702Z,99.90
2019-02-14T18:24:29.298Z,99.90
2019-02-14T18:26:57.934Z,99.90
2019-02-14T18:29:26.530Z,99.90
2019-02-14T18:31:55.114Z,99.90
2019-02-14T18:34:23.858Z,99.90
2019-02-14T18:36:52.524Z,99.90
2019-02-14T18:39:21.123Z,99.90
2019-02-14T18:41:50.116Z,99.90
2019-02-14T18:44:18.706Z,99.90
2019-02-14T18:46:47.388Z,99.90
2019-02-14T18:49:16.582Z,99.90
2019-02-14T18:51:45.555Z,99.90
2019-02-14T18:54:14.289Z,99.90
2019-02-14T18:56:42.936Z,99.90
2019-02-14T18:59:11.606Z,99.90
2019-02-14T19:01:40.266Z,99.90
2019-02-14T19:04:08.865Z,99.90
2019-02-14T19:06:37.437Z,99.90
2019-02-14T19:09:08.001Z,99.90
2019-02-14T19:11:37.947Z,99.90
2019-02-14T19:14:06.672Z,99.90
2019-02-14T19:16:35.395Z,99.90
2019-02-14T19:19:04.159Z,99.90
2019-02-14T19:21:32.779Z,99.90
2019-02-14T19:24:01.506Z,99.90
2019-02-14T19:26:30.130Z,99.90
2019-02-14T19:28:58.980Z,99.90
2019-02-14T19:31:27.691Z,99.90
2019-02-14T19:33:56.447Z,99.90
2019-02-14T19:36:28.107Z,99.90
2019-02-14T19:38:56.734Z,99.90
2019-02-14T19:41:25.779Z,99.90
2019-02-14T19:43:54.797Z,99.90
2019-02-14T19:46:23.450Z,99.90
2019-02-14T19:48:52.095Z,99.90
2019-02-14T19:51:20.835Z,99.90
2019-02-14T19:53:49.473Z,99.90
2019-02-14T19:56:18.465Z,99.90
2019-02-14T19:58:47.167Z,99.90
2019-02-14T20:01:15.827Z,99.90
2019-02-14T20:03:44.643Z,99.90
2019-02-14T20:06:13.319Z,99.90
2019-02-14T20:08:41.970Z,99.90
2019-02-14T20:11:10.642Z,99.90
2019-02-14T20:13:39.261Z,99.90
2019-02-14T20:16:07.937Z,99.90
2019-02-14T20:18:36.574Z,99.90
2019-02-14T20:21:05.800Z,99.90
2019-02-14T20:23:36.240Z,99.90
2019-02-14T20:26:05.783Z,99.90
2019-02-14T20:28:34.402Z,99.90
2019-02-14T20:31:03.130Z,99.90
2019-02-14T20:33:31.730Z,99.90
2019-02-14T20:36:00.423Z,99.90
2019-02-14T20:38:29.093Z,99.90
2019-02-14T20:40:57.718Z,99.90
2019-02-14T20:43:26.483Z,99.90
2019-02-14T20:45:56.606Z,99.90
2019-02-14T20:48:26.443Z,99.90
2019-02-14T20:50:55.862Z,99.90
2019-02-14T20:53:25.301Z,99.90
2019-02-14T20:55:54.076Z,99.90
2019-02-14T20:58:23.058Z,99.90
2019-02-14T21:00:51.887Z,99.90
2019-02-14T21:03:20.882Z,99.90
2019-02-14T21:05:51.388Z,99.90
2019-02-14T21:08:23.494Z,99.90
2019-02-14T21:10:52.278Z,99.90
2019-02-14T21:13:20.993Z,99.90
2019-02-14T21:15:51.666Z,99.90
2019-02-14T21:18:20.342Z,99.90
2019-02-14T21:20:49.018Z,99.90
2019-02-14T21:23:17.942Z,99.90
2019-02-14T21:25:47.250Z,99.90
2019-02-14T21:28:17.164Z,99.90
2019-02-14T21:30:45.795Z,99.90
2019-02-14T21:33:14.417Z,99.90
2019-02-14T21:35:42.990Z,99.90
2019-02-14T21:38:11.735Z,99.90
2019-02-14T21:40:46.083Z,99.90
2019-02-14T21:43:14.839Z,99.90
2019-02-14T21:45:43.586Z,99.90
2019-02-14T21:48:12.304Z,99.90
2019-02-14T21:50:41.006Z,99.90
2019-02-14T21:53:12.140Z,99.90
2019-02-14T21:55:40.936Z,99.90
2019-02-14T21:58:09.594Z,99.90
2019-02-14T22:00:38.301Z,99.90
2019-02-14T22:03:06.889Z,99.90
2019-02-14T22:05:35.460Z,99.90
2019-02-14T22:08:04.130Z,99.90
2019-02-14T22:10:32.739Z,99.90
2019-02-14T22:13:01.304Z,99.90
2019-02-14T22:15:30.341Z,99.90
2019-02-14T22:17:59.141Z,99.90
2019-02-14T22:20:27.850Z,99.90
2019-02-14T22:22:56.514Z,99.90
2019-02-14T22:25:25.153Z,99.90
2019-02-14T22:27:53.934Z,99.90
2019-02-14T22:30:22.666Z,99.90
2019-02-14T22:32:51.373Z,99.90
2019-02-14T22:35:20.142Z,99.90
2019-02-14T22:37:48.852Z,99.90
2019-02-14T22:40:17.586Z,99.90
2019-02-14T22:42:47.666Z,99.90
2019-02-14T22:45:16.617Z,99.90
2019-02-14T22:47:45.377Z,99.90
2019-02-14T22:50:14.384Z,99.90
2019-02-14T22:52:43.333Z,99.90
2019-02-14T22:55:14.881Z,99.90
2019-02-14T22:57:43.730Z,99.90
2019-02-14T23:00:34.031Z,99.90
2019-02-14T23:03:03.110Z,99.90
2019-02-14T23:05:32.023Z,99.90
2019-02-14T23:08:01.156Z,99.90
2019-02-14T23:10:30.399Z,99.90
2019-02-14T23:12:59.068Z,99.90
2019-02-14T23:15:27.836Z,99.90
2019-02-14T23:17:56.509Z,99.90
2019-02-14T23:20:25.323Z,99.90
2019-02-14T23:22:54.014Z,99.90
2019-02-14T23:25:22.763Z,99.90
2019-02-14T23:27:51.472Z,99.90
2019-02-14T23:30:20.467Z,99.90
2019-02-14T23:32:49.055Z,99.90
2019-02-14T23:35:17.657Z,99.90
2019-02-14T23:37:46.646Z,99.90
2019-02-14T23:40:15.314Z,99.90
2019-02-14T23:42:44.030Z,99.90
2019-02-14T23:45:12.771Z,99.90
2019-02-14T23:47:44.675Z,99.90
2019-02-14T23:50:13.409Z,99.90
2019-02-14T23:52:42.523Z,99.90
2019-02-14T23:55:12.560Z,99.90
2019-02-14T23:57:41.537Z,99.90
